createdAt,value
2019-03-16T00:03:15.608Z,3.47
2019-03-16T00:05:44.235Z,3.65
2019-03-16T00:08:12.892Z,3.87
2019-03-16T00:10:44.638Z,3.83
2019-03-16T00:13:15.935Z,3.40
2019-03-16T00:15:43.431Z,3.47
2019-03-16T00:18:12.088Z,3.30
2019-03-16T00:20:40.691Z,3.58
2019-03-16T00:23:09.324Z,3.12
2019-03-16T00:25:37.897Z,3.40
2019-03-16T00:28:07.452Z,2.95
2019-03-16T00:30:36.112Z,3.00
2019-03-16T00:33:04.796Z,2.95
2019-03-16T00:35:35.350Z,2.90
2019-03-16T00:38:04.091Z,3.20
2019-03-16T00:40:32.719Z,3.02
2019-03-16T00:43:02.645Z,3.30
2019-03-16T00:45:31.179Z,2.90
2019-03-16T00:47:59.863Z,2.70
2019-03-16T00:50:28.427Z,2.90
2019-03-16T00:52:57.018Z,2.35
2019-03-16T00:55:25.612Z,2.58
2019-03-16T00:57:54.244Z,2.67
2019-03-16T01:00:22.880Z,2.45
2019-03-16T01:02:51.510Z,2.37
2019-03-16T01:05:20.145Z,2.50
2019-03-16T01:07:48.779Z,2.15
2019-03-16T01:10:17.429Z,2.17
2019-03-16T01:12:46.008Z,2.42
2019-03-16T01:15:15.196Z,2.50
2019-03-16T01:17:43.790Z,2.05
2019-03-16T01:20:13.126Z,2.20
2019-03-16T01:22:41.685Z,2.40
2019-03-16T01:25:13.104Z,2.70
2019-03-16T01:27:41.666Z,2.95
2019-03-16T01:30:15.462Z,2.33
2019-03-16T01:32:44.203Z,2.70
2019-03-16T01:35:13.015Z,3.00
2019-03-16T01:37:41.610Z,2.60
2019-03-16T01:40:10.974Z,2.95
2019-03-16T01:42:39.641Z,2.70
2019-03-16T01:45:12.149Z,2.67
2019-03-16T01:50:10.997Z,2.52
2019-03-16T01:52:39.631Z,2.90
2019-03-16T01:55:10.328Z,3.25
2019-03-16T01:57:38.917Z,2.52
2019-03-16T02:00:13.445Z,2.95
2019-03-16T02:02:54.330Z,2.60
2019-03-16T02:05:12.345Z,2.55
2019-03-16T02:07:41.062Z,2.10
2019-03-16T02:10:10.237Z,2.80
2019-03-16T02:12:38.796Z,2.52
2019-03-16T02:15:08.483Z,2.30
2019-03-16T02:17:37.162Z,2.58
2019-03-16T02:20:08.005Z,2.37
2019-03-16T02:22:36.604Z,2.10
2019-03-16T02:25:06.762Z,2.37
2019-03-16T02:27:35.357Z,2.25
2019-03-16T02:30:05.378Z,2.42
2019-03-16T02:32:33.956Z,2.35
2019-03-16T02:35:04.505Z,2.58
2019-03-16T02:37:33.083Z,2.15
2019-03-16T02:40:01.630Z,2.30
2019-03-16T02:42:30.193Z,1.98
2019-03-16T02:44:58.988Z,2.25
2019-03-16T02:47:27.541Z,2.25
2019-03-16T02:49:58.117Z,2.22
2019-03-16T02:52:30.400Z,2.30
2019-03-16T02:54:59.089Z,2.65
2019-03-16T02:57:27.699Z,2.60
2019-03-16T02:59:56.278Z,2.20
2019-03-16T03:02:24.878Z,2.10
2019-03-16T03:04:53.435Z,2.30
2019-03-16T03:07:22.006Z,2.45
2019-03-16T03:09:51.533Z,2.35
2019-03-16T03:12:20.111Z,2.33
2019-03-16T03:14:48.681Z,2.40
2019-03-16T03:17:17.296Z,2.42
2019-03-16T03:19:45.881Z,2.12
2019-03-16T03:22:14.469Z,2.55
2019-03-16T03:24:44.443Z,2.83
2019-03-16T03:27:15.386Z,2.45
2019-03-16T03:29:45.862Z,2.20
2019-03-16T03:32:14.461Z,2.22
2019-03-16T03:34:43.442Z,2.50
2019-03-16T03:37:11.977Z,2.20
2019-03-16T03:39:41.586Z,2.58
2019-03-16T03:42:10.222Z,2.60
2019-03-16T03:44:38.828Z,2.45
2019-03-16T03:47:07.448Z,2.40
2019-03-16T03:49:36.013Z,2.62
2019-03-16T03:52:04.653Z,2.27
2019-03-16T03:54:33.407Z,2.67
2019-03-16T03:57:01.991Z,2.45
2019-03-16T03:59:30.554Z,2.50
2019-03-16T04:01:59.217Z,2.52
2019-03-16T04:04:27.855Z,2.80
2019-03-16T04:06:56.488Z,2.58
2019-03-16T04:09:25.080Z,2.80
2019-03-16T04:11:53.651Z,2.10
2019-03-16T04:14:22.261Z,2.30
2019-03-16T04:16:50.875Z,2.30
2019-03-16T04:19:19.503Z,2.67
2019-03-16T04:21:48.069Z,2.75
2019-03-16T04:24:16.653Z,2.87
2019-03-16T04:26:45.232Z,2.67
2019-03-16T04:29:13.903Z,2.33
2019-03-16T04:31:42.479Z,2.60
2019-03-16T04:34:11.043Z,2.50
2019-03-16T04:36:39.697Z,2.85
2019-03-16T04:39:08.412Z,3.17
2019-03-16T04:41:37.022Z,2.50
2019-03-16T04:44:05.683Z,2.45
2019-03-16T04:46:34.252Z,2.30
2019-03-16T04:49:02.855Z,2.92
2019-03-16T04:51:32.284Z,2.65
2019-03-16T04:54:00.883Z,2.20
2019-03-16T04:56:29.418Z,2.62
2019-03-16T04:58:57.989Z,2.27
2019-03-16T05:01:26.542Z,2.10
2019-03-16T05:03:55.564Z,2.58
2019-03-16T05:06:25.172Z,2.45
2019-03-16T05:08:54.067Z,2.55
2019-03-16T05:11:24.635Z,2.98
2019-03-16T05:13:53.207Z,2.80
2019-03-16T05:16:22.145Z,2.30
2019-03-16T05:18:50.729Z,2.75
2019-03-16T05:21:19.284Z,2.20
2019-03-16T05:23:47.916Z,2.15
2019-03-16T05:26:16.572Z,1.90
2019-03-16T05:28:45.131Z,2.00
2019-03-16T05:31:13.700Z,1.92
2019-03-16T05:33:42.642Z,2.15
2019-03-16T05:36:12.221Z,2.08
2019-03-16T05:38:40.783Z,1.65
2019-03-16T05:41:09.336Z,2.00
2019-03-16T05:43:37.921Z,2.10
2019-03-16T05:46:06.500Z,2.22
2019-03-16T05:48:35.074Z,1.90
2019-03-16T05:51:03.677Z,2.10
2019-03-16T05:53:32.643Z,1.72
2019-03-16T05:56:01.346Z,2.02
2019-03-16T05:58:29.963Z,2.02
2019-03-16T06:00:58.545Z,2.05
2019-03-16T06:03:28.013Z,2.20
2019-03-16T06:05:56.634Z,1.87
2019-03-16T06:08:25.243Z,1.90
2019-03-16T06:10:53.906Z,2.25
2019-03-16T06:13:22.520Z,2.50
2019-03-16T06:15:51.094Z,3.55
2019-03-16T06:18:19.742Z,4.00
2019-03-16T06:20:48.357Z,5.17
2019-03-16T06:23:16.983Z,5.12
2019-03-16T06:25:45.906Z,5.20
2019-03-16T06:28:14.497Z,4.47
2019-03-16T06:30:44.233Z,4.58
2019-03-16T06:33:12.797Z,5.15
2019-03-16T06:35:41.730Z,4.60
2019-03-16T06:38:10.266Z,3.72
2019-03-16T06:40:39.193Z,4.17
2019-03-16T06:43:08.901Z,3.67
2019-03-16T06:45:38.433Z,3.87
2019-03-16T06:48:07.040Z,4.40
2019-03-16T06:50:35.757Z,4.05
2019-03-16T06:53:04.315Z,4.60
2019-03-16T06:55:32.898Z,2.80
2019-03-16T06:58:01.463Z,3.15
2019-03-16T07:00:30.062Z,2.83
2019-03-16T07:02:58.649Z,2.95
2019-03-16T07:05:37.550Z,3.17
2019-03-16T07:07:57.461Z,2.75
2019-03-16T07:10:26.058Z,2.67
2019-03-16T07:12:55.619Z,2.58
2019-03-16T07:15:24.547Z,2.80
2019-03-16T07:17:53.108Z,2.52
2019-03-16T07:20:21.690Z,2.60
2019-03-16T07:22:50.302Z,2.60
2019-03-16T07:25:19.064Z,3.25
2019-03-16T07:27:47.603Z,3.10
2019-03-16T07:30:16.257Z,2.87
2019-03-16T07:32:45.892Z,3.00
2019-03-16T07:35:14.551Z,2.67
2019-03-16T07:37:43.533Z,2.60
2019-03-16T07:40:19.992Z,2.85
2019-03-16T07:42:48.556Z,2.50
2019-03-16T07:45:17.227Z,2.50
2019-03-16T07:47:47.747Z,2.42
2019-03-16T07:50:18.433Z,2.85
2019-03-16T07:52:47.003Z,2.35
2019-03-16T07:55:15.840Z,2.72
2019-03-16T07:57:44.826Z,3.20
2019-03-16T08:00:13.658Z,2.98
2019-03-16T08:02:42.238Z,2.85
2019-03-16T08:05:18.158Z,3.70
2019-03-16T08:07:41.154Z,3.12
2019-03-16T08:10:12.984Z,2.95
2019-03-16T08:12:41.670Z,2.62
2019-03-16T08:15:11.779Z,2.55
2019-03-16T08:17:40.350Z,2.35
2019-03-16T08:20:10.382Z,1.95
2019-03-16T08:22:39.426Z,1.65
2019-03-16T08:25:13.306Z,1.62
2019-03-16T08:27:53.978Z,1.52
2019-03-16T08:32:42.853Z,1.70
2019-03-16T08:35:11.546Z,1.60
2019-03-16T08:37:40.181Z,1.65
2019-03-16T08:40:10.429Z,1.80
2019-03-16T08:42:39.110Z,1.70
2019-03-16T08:45:11.487Z,1.77
2019-03-16T08:47:40.119Z,2.10
2019-03-16T08:50:10.224Z,1.90
2019-03-16T08:52:38.774Z,3.75
2019-03-16T08:55:08.708Z,6.42
2019-03-16T08:57:37.309Z,4.80
2019-03-16T09:00:09.582Z,4.95
2019-03-16T09:02:38.147Z,3.52
2019-03-16T09:05:07.817Z,4.60
2019-03-16T09:07:36.410Z,4.50
2019-03-16T09:10:06.963Z,5.45
2019-03-16T09:12:35.532Z,5.92
2019-03-16T09:15:06.521Z,5.80
2019-03-16T09:17:35.093Z,4.67
2019-03-16T09:20:04.956Z,2.47
2019-03-16T09:22:33.534Z,4.00
2019-03-16T09:25:02.073Z,2.10
2019-03-16T09:27:31.690Z,4.00
2019-03-16T09:30:00.375Z,2.83
2019-03-16T09:32:28.952Z,2.30
2019-03-16T09:34:57.513Z,2.65
2019-03-16T09:37:26.147Z,4.25
2019-03-16T09:39:54.742Z,3.10
2019-03-16T09:42:23.348Z,2.87
2019-03-16T09:44:51.951Z,2.50
2019-03-16T09:47:20.529Z,2.55
2019-03-16T09:49:49.067Z,2.27
2019-03-16T09:52:17.666Z,2.10
2019-03-16T09:54:47.283Z,2.08
2019-03-16T09:57:15.836Z,2.17
2019-03-16T09:59:44.392Z,1.90
2019-03-16T10:02:13.042Z,2.05
2019-03-16T10:04:41.680Z,2.00
2019-03-16T10:07:10.262Z,2.10
2019-03-16T10:09:39.162Z,2.12
2019-03-16T10:12:07.793Z,2.10
2019-03-16T10:14:37.379Z,2.45
2019-03-16T10:17:06.082Z,2.30
2019-03-16T10:19:34.680Z,2.15
2019-03-16T10:22:03.238Z,2.25
2019-03-16T10:24:31.802Z,2.17
2019-03-16T10:27:00.385Z,2.40
2019-03-16T10:29:28.972Z,2.10
2019-03-16T10:31:57.556Z,2.70
2019-03-16T10:34:26.135Z,2.50
2019-03-16T10:36:54.706Z,2.52
2019-03-16T10:39:23.312Z,3.00
2019-03-16T10:41:51.879Z,2.50
2019-03-16T10:44:20.454Z,2.42
2019-03-16T10:46:49.122Z,2.47
2019-03-16T10:49:17.682Z,2.52
2019-03-16T10:51:46.312Z,3.80
2019-03-16T10:54:14.938Z,2.85
2019-03-16T10:56:43.503Z,2.75
2019-03-16T10:59:12.066Z,5.05
2019-03-16T11:01:40.711Z,2.95
2019-03-16T11:04:09.352Z,3.02
2019-03-16T11:06:37.913Z,2.95
2019-03-16T11:09:07.169Z,2.42
2019-03-16T11:11:35.719Z,2.67
2019-03-16T11:14:04.358Z,2.55
2019-03-16T11:16:32.956Z,2.80
2019-03-16T11:19:01.527Z,2.98
2019-03-16T11:21:30.098Z,2.80
2019-03-16T11:23:58.679Z,2.70
2019-03-16T11:26:27.243Z,2.80
2019-03-16T11:29:08.073Z,2.70
2019-03-16T11:31:26.036Z,3.22
2019-03-16T11:33:54.644Z,2.80
2019-03-16T11:36:23.320Z,3.00
2019-03-16T11:38:51.870Z,2.52
2019-03-16T11:41:20.436Z,3.10
2019-03-16T11:43:49.438Z,2.87
2019-03-16T11:46:18.155Z,2.40
2019-03-16T11:48:46.751Z,2.70
2019-03-16T11:51:15.343Z,2.50
2019-03-16T11:53:43.922Z,2.12
2019-03-16T11:56:17.835Z,2.27
2019-03-16T11:58:42.779Z,2.35
2019-03-16T12:01:11.342Z,2.50
2019-03-16T12:03:39.953Z,2.58
2019-03-16T12:06:08.501Z,2.75
2019-03-16T12:08:39.588Z,2.72
2019-03-16T12:11:07.331Z,2.30
2019-03-16T12:13:35.907Z,2.75
2019-03-16T12:16:04.901Z,2.80
2019-03-16T12:18:33.493Z,2.40
2019-03-16T12:21:02.547Z,2.40
2019-03-16T12:23:31.451Z,2.70
2019-03-16T12:26:00.039Z,2.67
2019-03-16T12:28:28.594Z,2.62
2019-03-16T12:30:57.171Z,3.50
2019-03-16T12:33:25.775Z,3.33
2019-03-16T12:35:54.347Z,3.42
2019-03-16T12:38:22.928Z,3.00
2019-03-16T12:40:51.538Z,3.20
2019-03-16T12:43:20.104Z,3.20
2019-03-16T12:45:48.662Z,3.40
2019-03-16T12:48:17.292Z,3.10
2019-03-16T12:50:45.878Z,3.27
2019-03-16T12:53:15.355Z,3.10
2019-03-16T12:55:44.002Z,2.90
2019-03-16T12:58:12.568Z,2.22
2019-03-16T13:00:41.168Z,2.33
2019-03-16T13:03:09.756Z,2.17
2019-03-16T13:05:38.323Z,2.50
2019-03-16T13:08:06.891Z,2.37
2019-03-16T13:10:35.456Z,1.90
2019-03-16T13:13:04.075Z,2.05
2019-03-16T13:15:32.728Z,2.50
2019-03-16T13:18:01.259Z,2.30
2019-03-16T13:20:29.891Z,2.58
2019-03-16T13:22:58.471Z,2.47
2019-03-16T13:25:27.037Z,2.60
2019-03-16T13:27:55.653Z,2.20
2019-03-16T13:30:24.224Z,2.65
2019-03-16T13:32:52.790Z,2.58
2019-03-16T13:35:21.371Z,2.95
2019-03-16T13:37:50.344Z,2.77
2019-03-16T13:40:19.146Z,3.10
2019-03-16T13:42:47.850Z,2.83
2019-03-16T13:45:16.527Z,2.47
2019-03-16T13:47:45.475Z,2.45
2019-03-16T13:50:18.830Z,2.52
2019-03-16T13:52:47.810Z,2.85
2019-03-16T13:55:16.372Z,2.20
2019-03-16T13:57:45.001Z,2.95
2019-03-16T14:00:17.125Z,2.80
2019-03-16T14:02:47.805Z,2.77
2019-03-16T14:05:16.391Z,3.35
2019-03-16T14:07:45.457Z,3.33
2019-03-16T14:10:19.161Z,2.70
2019-03-16T14:12:47.734Z,3.77
2019-03-16T14:15:16.294Z,2.70
2019-03-16T14:17:45.192Z,3.90
2019-03-16T14:20:15.657Z,3.30
2019-03-16T14:22:44.299Z,2.98
2019-03-16T14:25:18.404Z,2.20
2019-03-16T14:27:47.023Z,3.10
2019-03-16T14:30:39.052Z,3.22
2019-03-16T14:32:51.573Z,3.50
2019-03-16T14:35:20.361Z,3.20
2019-03-16T14:37:49.813Z,3.65
2019-03-16T14:40:18.662Z,3.42
2019-03-16T14:42:47.435Z,3.58
2019-03-16T14:45:16.667Z,3.50
2019-03-16T14:47:45.267Z,3.35
2019-03-16T14:50:27.392Z,2.87
2019-03-16T14:52:55.984Z,3.45
2019-03-16T14:55:24.557Z,4.33
2019-03-16T14:57:53.131Z,3.08
2019-03-16T15:00:21.806Z,3.55
2019-03-16T15:02:50.478Z,3.52
2019-03-16T15:05:19.163Z,3.52
2019-03-16T15:07:49.774Z,3.12
2019-03-16T15:10:18.410Z,3.00
2019-03-16T15:12:47.046Z,3.02
2019-03-16T15:15:17.232Z,3.90
2019-03-16T15:17:45.863Z,4.35
2019-03-16T15:20:14.517Z,3.92
2019-03-16T15:22:43.250Z,3.83
2019-03-16T15:25:12.730Z,4.15
2019-03-16T15:27:41.289Z,4.85
2019-03-16T15:30:23.474Z,4.30
2019-03-16T15:32:52.190Z,4.20
2019-03-16T15:35:20.767Z,4.25
2019-03-16T15:37:49.370Z,3.72
2019-03-16T15:40:18.081Z,4.65
2019-03-16T15:42:46.685Z,4.40
2019-03-16T15:45:24.357Z,3.80
2019-03-16T15:47:57.610Z,4.05
2019-03-16T15:50:27.069Z,4.55
2019-03-16T15:52:55.650Z,4.62
2019-03-16T15:55:24.398Z,4.53
2019-03-16T15:58:07.252Z,4.55
2019-03-16T16:00:29.218Z,4.80
2019-03-16T16:02:58.235Z,4.45
2019-03-16T16:05:26.974Z,4.80
2019-03-16T16:07:55.576Z,5.28
2019-03-16T16:10:24.236Z,5.35
2019-03-16T16:12:52.830Z,5.00
2019-03-16T16:15:22.512Z,5.50
2019-03-16T16:17:51.157Z,5.30
2019-03-16T16:20:20.001Z,5.85
2019-03-16T16:22:48.641Z,5.30
2019-03-16T16:25:17.843Z,5.33
2019-03-16T16:27:46.408Z,5.12
2019-03-16T16:30:21.740Z,5.70
2019-03-16T16:32:50.316Z,5.33
2019-03-16T16:35:19.000Z,5.70
2019-03-16T16:37:47.632Z,5.58
2019-03-16T16:40:17.356Z,6.15
2019-03-16T16:42:45.991Z,6.10
2019-03-16T16:45:15.588Z,5.67
2019-03-16T16:47:44.239Z,6.67
2019-03-16T16:50:23.599Z,7.70
2019-03-16T16:52:52.377Z,9.30
2019-03-16T16:55:21.013Z,7.65
2019-03-16T16:57:49.588Z,7.40
2019-03-16T17:00:25.542Z,9.50
2019-03-16T17:02:54.165Z,7.03
2019-03-16T17:05:22.801Z,6.60
2019-03-16T17:07:52.373Z,7.20
2019-03-16T17:10:20.951Z,7.45
2019-03-16T17:12:49.610Z,6.97
2019-03-16T17:15:23.000Z,8.00
2019-03-16T17:17:52.060Z,7.87
2019-03-16T17:20:20.693Z,7.90
2019-03-16T17:22:49.278Z,7.58
2019-03-16T17:25:18.173Z,8.43
2019-03-16T17:27:46.775Z,9.90
2019-03-16T17:30:24.692Z,9.03
2019-03-16T17:32:53.588Z,8.60
2019-03-16T17:35:22.159Z,8.95
2019-03-16T17:37:51.165Z,9.10
2019-03-16T17:40:19.888Z,10.70
2019-03-16T17:42:48.468Z,10.18
2019-03-16T17:45:17.229Z,11.45
2019-03-16T17:47:46.836Z,10.32
2019-03-16T17:50:16.771Z,10.80
2019-03-16T17:52:45.351Z,9.83
2019-03-16T17:55:23.161Z,9.63
2019-03-16T17:57:52.085Z,10.23
2019-03-16T18:00:22.581Z,9.95
2019-03-16T18:02:52.722Z,9.33
2019-03-16T18:05:22.711Z,8.80
2019-03-16T18:07:51.337Z,10.00
2019-03-16T18:10:19.980Z,9.18
2019-03-16T18:12:48.700Z,8.88
2019-03-16T18:15:21.714Z,8.68
2019-03-16T18:17:50.276Z,8.15
2019-03-16T18:20:19.323Z,9.05
2019-03-16T18:22:48.343Z,8.95
2019-03-16T18:25:17.403Z,8.85
2019-03-16T18:27:46.098Z,8.70
2019-03-16T18:30:20.110Z,8.38
2019-03-16T18:32:48.756Z,9.50
2019-03-16T18:35:17.729Z,8.35
2019-03-16T18:37:46.345Z,8.95
2019-03-16T18:40:15.881Z,9.30
2019-03-16T18:42:44.433Z,9.48
2019-03-16T18:45:28.135Z,9.85
2019-03-16T18:47:56.770Z,10.65
2019-03-16T18:50:25.345Z,11.00
2019-03-16T18:52:53.973Z,10.32
2019-03-16T18:55:29.742Z,10.70
2019-03-16T18:57:58.299Z,10.13
2019-03-16T19:00:28.931Z,10.10
2019-03-16T19:02:57.568Z,10.08
2019-03-16T19:05:26.140Z,10.25
2019-03-16T19:07:54.817Z,10.43
2019-03-16T19:10:23.797Z,11.63
2019-03-16T19:12:52.400Z,11.83
2019-03-16T19:15:21.147Z,11.08
2019-03-16T19:17:58.738Z,11.25
2019-03-16T19:20:20.092Z,11.80
2019-03-16T19:22:48.775Z,13.20
2019-03-16T19:25:21.392Z,14.95
2019-03-16T19:27:50.073Z,13.08
2019-03-16T19:30:19.475Z,14.00
2019-03-16T19:32:48.080Z,12.70
2019-03-16T19:35:16.774Z,13.90
2019-03-16T19:37:45.354Z,14.13
2019-03-16T19:40:18.482Z,13.78
2019-03-16T19:42:47.450Z,13.58
2019-03-16T19:45:16.300Z,13.45
2019-03-16T19:47:46.200Z,12.43
2019-03-16T19:50:16.643Z,12.40
2019-03-16T19:52:45.228Z,12.00
2019-03-16T19:55:14.599Z,13.70
2019-03-16T19:57:44.705Z,12.95
2019-03-16T20:00:15.443Z,13.53
2019-03-16T20:02:51.427Z,14.78
2019-03-16T20:05:18.765Z,14.15
2019-03-16T20:07:47.405Z,14.78
2019-03-16T20:10:17.219Z,15.18
2019-03-16T20:12:45.836Z,16.12
2019-03-16T20:15:15.460Z,15.90
2019-03-16T20:17:44.149Z,15.38
2019-03-16T20:20:19.601Z,17.10
2019-03-16T20:22:48.294Z,17.67
2019-03-16T20:25:16.964Z,16.70
2019-03-16T20:27:45.580Z,16.45
2019-03-16T20:30:15.485Z,16.10
2019-03-16T20:32:44.060Z,15.15
2019-03-16T20:35:13.361Z,14.43
2019-03-16T20:37:41.900Z,15.40
2019-03-16T20:40:15.129Z,15.32
2019-03-16T20:42:43.801Z,14.78
2019-03-16T20:45:12.568Z,14.03
2019-03-16T20:47:41.398Z,13.68
2019-03-16T20:50:17.806Z,14.07
2019-03-16T20:52:47.603Z,12.37
2019-03-16T20:55:16.255Z,12.55
2019-03-16T20:57:44.830Z,12.50
2019-03-16T21:00:20.715Z,12.13
2019-03-16T21:02:49.282Z,12.43
2019-03-16T21:05:17.873Z,12.60
2019-03-16T21:07:46.468Z,13.05
2019-03-16T21:10:15.194Z,13.48
2019-03-16T21:12:43.795Z,11.97
2019-03-16T21:15:14.024Z,13.48
2019-03-16T21:17:42.754Z,12.75
2019-03-16T21:20:15.572Z,15.15
2019-03-16T21:22:44.309Z,13.80
2019-03-16T21:25:14.351Z,13.22
2019-03-16T21:27:43.024Z,13.70
2019-03-16T21:30:14.302Z,13.15
2019-03-16T21:32:42.874Z,14.33
2019-03-16T21:35:11.619Z,14.68
2019-03-16T21:37:40.496Z,14.50
2019-03-16T21:40:11.555Z,14.95
2019-03-16T21:42:40.125Z,15.15
2019-03-16T21:45:13.064Z,15.60
2019-03-16T21:47:41.674Z,16.77
2019-03-16T21:50:11.961Z,15.48
2019-03-16T21:52:40.609Z,16.87
2019-03-16T21:55:10.514Z,15.72
2019-03-16T21:57:39.164Z,16.12
2019-03-16T22:00:16.962Z,16.67
2019-03-16T22:02:45.519Z,16.70
2019-03-16T22:05:14.220Z,17.57
2019-03-16T22:07:43.919Z,16.42
2019-03-16T22:10:16.680Z,17.70
2019-03-16T22:12:45.385Z,17.10
2019-03-16T22:15:18.343Z,17.07
2019-03-16T22:17:46.956Z,18.17
2019-03-16T22:20:21.726Z,18.20
2019-03-16T22:22:50.359Z,17.70
2019-03-16T22:25:19.068Z,17.90
2019-03-16T22:27:47.967Z,18.73
2019-03-16T22:30:17.462Z,18.67
2019-03-16T22:32:46.039Z,17.75
2019-03-16T22:35:14.686Z,18.30
2019-03-16T22:37:44.298Z,18.48
2019-03-16T22:40:15.443Z,18.25
2019-03-16T22:42:44.101Z,19.30
2019-03-16T22:45:14.578Z,20.80
2019-03-16T22:47:43.293Z,17.92
2019-03-16T22:50:19.197Z,18.80
2019-03-16T22:52:48.293Z,19.82
2019-03-16T22:55:16.925Z,19.32
2019-03-16T22:57:46.532Z,20.85
2019-03-16T23:00:19.828Z,20.48
2019-03-16T23:02:48.911Z,19.45
2019-03-16T23:05:17.588Z,18.67
2019-03-16T23:07:46.153Z,17.92
2019-03-16T23:10:14.860Z,17.75
2019-03-16T23:12:43.554Z,16.97
2019-03-16T23:15:12.862Z,16.93
2019-03-16T23:17:41.405Z,16.23
2019-03-16T23:20:10.551Z,16.95
2019-03-16T23:22:40.248Z,16.32
2019-03-16T23:25:10.536Z,17.00
2019-03-16T23:27:39.057Z,16.57
2019-03-16T23:30:10.094Z,16.50
2019-03-16T23:32:38.707Z,16.15
2019-03-16T23:35:15.555Z,16.42
2019-03-16T23:37:53.832Z,14.60
2019-03-16T23:40:23.398Z,14.50
2019-03-16T23:42:51.986Z,15.20
2019-03-16T23:45:20.717Z,13.88
2019-03-16T23:47:49.391Z,14.80
2019-03-16T23:50:17.944Z,14.30
2019-03-16T23:52:47.466Z,14.38
2019-03-16T23:55:16.105Z,14.35
2019-03-16T23:57:45.686Z,14.05
